Time;durP1;ratioP1;P1;durP2;ratioP2;P2;SDS_P1;SDS_P2;PMS_P1;PMS_P2;Temp;Humidity;BMP_temperature;BMP_pressure;BME280_temperature;BME280_humidity;BME280_pressure;Samples;Min_cycle;Max_cycle;Signal;HPM_P1;HPM_P2
2022/10/02 00:02:01;;;;;;;4.13;1.90;;;;;;;17.01;82.05;94386.41;4177876;28;20129;-63
2022/10/02 00:04:05;;;;;;;4.70;2.03;;;;;;;16.98;82.23;94394.78;4172993;28;20185;-65
2022/10/02 00:06:14;;;;;;;3.88;1.88;;;;;;;17.02;82.22;94398.66;4170126;28;20044;-64
2022/10/02 00:08:34;;;;;;;4.10;2.10;;;;;;;17.04;82.33;94395.81;4171454;28;20480;-64
2022/10/02 00:10:38;;;;;;;;;;;;;;;17.06;82.16;94386.63;4170540;28;20583;-64
2022/10/02 00:12:40;;;;;;;4.07;1.90;;;;;;;17.07;82.16;94393.53;4171773;28;20007;-65
2022/10/02 00:14:43;;;;;;;4.70;2.03;;;;;;;17.03;82.30;94392.31;4166034;28;20076;-66
2022/10/02 00:16:51;;;;;;;6.20;2.55;;;;;;;16.99;82.04;94388.47;4173970;28;20041;-65
2022/10/02 00:18:54;;;;;;;4.28;2.35;;;;;;;16.98;82.42;94385.00;4178002;28;20049;-66
2022/10/02 00:21:07;;;;;;;4.22;2.38;;;;;;;17.04;82.33;94390.50;4175634;28;20084;-63
2022/10/02 00:23:18;;;;;;;5.63;2.58;;;;;;;16.96;82.15;94392.34;4165428;28;20133;-65
2022/10/02 00:25:40;;;;;;;5.05;2.95;;;;;;;16.91;82.74;94400.09;4171675;28;20154;-66
2022/10/02 00:28:06;;;;;;;5.30;2.60;;;;;;;16.93;82.64;94407.81;4163449;28;20132;-64
2022/10/02 00:30:11;;;;;;;7.28;3.08;;;;;;;16.87;82.78;94403.34;4172179;28;20085;-64
2022/10/02 00:32:21;;;;;;;7.90;2.90;;;;;;;16.89;82.66;94402.13;4168273;28;20076;-64
2022/10/02 00:34:38;;;;;;;5.70;2.97;;;;;;;16.96;82.39;94402.13;4179202;28;20059;-65
2022/10/02 00:36:46;;;;;;;4.80;2.70;;;;;;;16.93;82.08;94410.47;4174295;28;20063;-64
2022/10/02 00:38:56;;;;;;;5.43;2.80;;;;;;;16.88;81.87;94411.06;4166341;28;20088;-63
2022/10/02 00:40:58;;;;;;;4.20;3.00;;;;;;;16.76;82.16;94417.97;4175036;28;20544;-63
2022/10/02 00:43:10;;;;;;;5.07;3.63;;;;;;;16.76;82.25;94415.34;4163706;28;20134;-64
2022/10/02 00:45:36;;;;;;;6.07;3.58;;;;;;;16.74;82.18;94412.88;4162260;28;20061;-67
2022/10/02 00:48:09;;;;;;;5.10;3.40;;;;;;;16.75;81.65;94417.13;4163731;28;20046;-65
2022/10/02 00:50:25;;;;;;;4.18;3.10;;;;;;;16.77;81.41;94424.88;4155013;28;20069;-64
2022/10/02 00:52:37;;;;;;;4.45;3.20;;;;;;;16.76;80.76;94429.38;4168470;28;20049;-65
2022/10/02 00:55:03;;;;;;;6.90;2.85;;;;;;;16.74;80.86;94431.41;4169257;28;20049;-63
2022/10/02 00:57:12;;;;;;;4.00;3.03;;;;;;;16.73;80.52;94424.47;4166397;28;20135;-64
2022/10/02 00:59:41;;;;;;;3.83;2.97;;;;;;;16.66;79.68;94434.25;4171816;28;20410;-64
2022/10/02 01:01:49;;;;;;;6.95;2.63;;;;;;;16.64;79.49;94428.34;4173766;28;20045;-67
2022/10/02 01:03:55;;;;;;;5.38;2.97;;;;;;;16.68;79.60;94432.22;4175735;28;20048;-65
2022/10/02 01:05:57;;;;;;;5.05;2.40;;;;;;;16.68;79.26;94426.91;4171271;28;20076;-66
2022/10/02 01:07:59;;;;;;;7.35;2.60;;;;;;;16.67;78.96;94427.94;4179130;28;20053;-62
2022/10/02 01:10:01;;;;;;;4.40;2.33;;;;;;;16.70;78.70;94447.88;4177717;28;20111;-64
2022/10/02 01:12:04;;;;;;;3.70;2.22;;;;;;;16.65;78.37;94447.66;4173604;28;20077;-65
2022/10/02 01:14:05;;;;;;;7.55;2.90;;;;;;;16.60;77.99;94453.56;4172052;28;20132;-64
2022/10/02 01:16:10;;;;;;;2.92;2.30;;;;;;;16.58;77.45;94453.78;4177019;28;20135;-63
2022/10/02 01:18:12;;;;;;;3.95;2.40;;;;;;;16.59;76.87;94450.09;4178106;28;20053;-66
2022/10/02 01:20:19;;;;;;;4.20;1.90;;;;;;;16.51;76.69;94450.28;4177478;28;20184;-65
2022/10/02 01:22:23;;;;;;;4.20;2.03;;;;;;;16.48;76.46;94455.19;4167653;28;20151;-65
2022/10/02 01:24:31;;;;;;;2.97;1.73;;;;;;;16.38;76.66;94448.44;4161737;28;20088;-66
2022/10/02 01:26:33;;;;;;;4.47;2.10;;;;;;;16.41;76.87;94451.69;4161100;28;20056;-65
2022/10/02 01:28:37;;;;;;;2.35;1.55;;;;;;;16.46;76.80;94449.28;4162498;28;20092;-64
2022/10/02 01:30:42;;;;;;;5.20;2.13;;;;;;;16.43;76.00;94460.25;4165673;28;20135;-65
2022/10/02 01:33:03;;;;;;;2.65;1.80;;;;;;;16.42;76.00;94462.09;4142156;28;20057;-64
2022/10/02 01:35:05;;;;;;;3.20;1.90;;;;;;;16.40;75.48;94466.75;4161126;28;20469;-63
2022/10/02 01:37:07;;;;;;;4.18;1.83;;;;;;;16.31;75.60;94471.41;4175245;28;20467;-64
2022/10/02 01:39:10;;;;;;;2.35;1.63;;;;;;;16.34;75.56;94481.56;4173643;28;20037;-62
2022/10/02 01:41:12;;;;;;;7.57;2.08;;;;;;;16.40;75.52;94469.41;4164087;28;20132;-63
2022/10/02 01:43:18;;;;;;;2.40;1.83;;;;;;;16.41;75.08;94483.44;4174113;28;20104;-65
2022/10/02 01:45:44;;;;;;;2.35;1.70;;;;;;;16.38;74.99;94479.34;4167083;28;20066;-65
2022/10/02 01:48:01;;;;;;;5.38;1.70;;;;;;;16.34;74.78;94484.22;4168054;28;20045;-65
2022/10/02 01:50:09;;;;;;;4.43;1.83;;;;;;;16.40;75.01;94481.81;4172801;28;20128;-67
2022/10/02 01:52:26;;;;;;;2.80;1.75;;;;;;;16.49;74.77;94480.59;4178536;28;20083;-64
2022/10/02 01:54:27;;;;;;;2.83;1.63;;;;;;;16.42;73.95;94477.94;4178166;28;20053;-64
2022/10/02 01:56:42;;;;;;;4.80;1.85;;;;;;;16.46;74.02;94476.53;4169452;28;20465;-64
2022/10/02 01:58:59;;;;;;;2.80;1.40;;;;;;;16.51;73.84;94484.66;4177591;28;20052;-64
2022/10/02 02:01:30;;;;;;;8.55;1.40;;;;;;;16.52;73.67;94483.66;4160504;28;20068;-64
2022/10/02 02:03:54;;;;;;;3.17;1.52;;;;;;;16.44;72.97;94489.13;4171287;28;20091;-64
2022/10/02 02:06:03;;;;;;;2.67;1.65;;;;;;;16.43;72.31;94481.41;4162202;28;20132;-65
2022/10/02 02:08:10;;;;;;;2.35;1.33;;;;;;;16.31;72.08;94491.75;4173973;28;20087;-63
2022/10/02 02:10:11;;;;;;;3.75;1.50;;;;;;;16.25;72.17;94492.53;4160149;28;20045;-64
2022/10/02 02:12:14;;;;;;;1.70;1.27;;;;;;;16.17;72.14;94488.25;4169259;28;20133;-65
2022/10/02 02:14:22;;;;;;;2.85;1.30;;;;;;;16.18;72.81;94500.47;4166547;28;20057;-63
2022/10/02 02:16:37;;;;;;;4.60;1.60;;;;;;;16.16;72.38;94497.19;4165728;28;20155;-62
2022/10/02 02:18:42;;;;;;;3.35;1.40;;;;;;;16.07;72.40;94506.31;4162815;28;20136;-65
2022/10/02 02:20:46;;;;;;;5.82;1.30;;;;;;;16.02;72.40;94512.16;4164787;28;20160;-64
2022/10/02 02:22:50;;;;;;;2.92;1.27;;;;;;;16.02;71.90;94521.94;4178380;28;20071;-65
2022/10/02 02:25:08;;;;;;;3.42;1.20;;;;;;;16.00;72.16;94519.47;4161982;28;20053;-64
2022/10/02 02:27:14;;;;;;;4.43;1.70;;;;;;;15.93;72.66;94532.66;4171248;28;20434;-65
2022/10/02 02:29:17;;;;;;;2.65;1.13;;;;;;;15.88;72.48;94529.00;4176311;28;20052;-63
2022/10/02 02:31:23;;;;;;;2.42;1.10;;;;;;;15.88;72.51;94529.81;4175377;28;20049;-64
2022/10/02 02:33:50;;;;;;;5.18;1.13;;;;;;;15.83;72.85;94540.16;4163794;28;20509;-65
2022/10/02 02:35:59;;;;;;;2.28;1.05;;;;;;;15.81;72.53;94534.25;4161309;28;20089;-63
2022/10/02 02:38:04;;;;;;;3.70;1.25;;;;;;;15.89;72.72;94527.97;4176854;28;20120;-65
2022/10/02 02:40:10;;;;;;;3.05;1.20;;;;;;;15.81;73.03;94541.34;4175569;28;20049;-65
2022/10/02 02:42:13;;;;;;;3.40;1.45;;;;;;;15.80;73.20;94537.88;4176821;28;20089;-65
2022/10/02 02:44:49;;;;;;;3.42;1.33;;;;;;;15.81;73.21;94530.75;4160432;28;20137;-65
2022/10/02 02:47:03;;;;;;;2.40;1.30;;;;;;;15.80;72.87;94540.53;4154935;28;20056;-65
2022/10/02 02:49:09;;;;;;;2.95;1.45;;;;;;;15.74;73.09;94551.88;4176896;28;20549;-65
2022/10/02 02:51:26;;;;;;;2.72;1.30;;;;;;;15.74;72.82;94549.22;4176793;28;20116;-64
2022/10/02 02:53:41;;;;;;;2.05;1.40;;;;;;;15.80;72.74;94556.38;4179783;28;20534;-65
2022/10/02 02:55:47;;;;;;;2.67;1.55;;;;;;;15.76;72.88;94555.94;4179012;28;20062;-64
2022/10/02 02:57:56;;;;;;;4.35;1.73;;;;;;;15.77;72.84;94567.34;4168867;28;20133;-64
2022/10/02 02:59:58;;;;;;;5.18;1.88;;;;;;;15.72;72.74;94570.56;4167326;28;20080;-64
2022/10/02 03:02:00;;;;;;;2.78;1.40;;;;;;;15.79;72.05;94573.25;4178858;28;20470;-63
2022/10/02 03:04:02;;;;;;;4.60;1.73;;;;;;;15.79;72.08;94586.44;4170956;28;20049;-63
2022/10/02 03:06:26;;;;;;;2.85;1.45;;;;;;;15.80;72.36;94589.91;4165541;28;20646;-65
2022/10/02 03:08:31;;;;;;;2.20;1.40;;;;;;;15.86;72.41;94587.28;4165006;28;20050;-65
2022/10/02 03:10:48;;;;;;;3.67;1.60;;;;;;;15.86;72.24;94592.56;4164290;28;20092;-63
2022/10/02 03:12:59;;;;;;;2.40;1.55;;;;;;;15.89;72.12;94594.00;4165488;28;20096;-64
2022/10/02 03:15:28;;;;;;;4.15;1.40;;;;;;;15.88;72.47;94593.19;4171764;28;20423;-64
2022/10/02 03:17:48;;;;;;;2.67;1.80;;;;;;;15.82;72.34;94604.53;4179367;28;20053;-64
2022/10/02 03:20:12;;;;;;;3.63;2.03;;;;;;;15.79;72.39;94598.81;4165590;28;20422;-63
2022/10/02 03:22:29;;;;;;;4.40;2.00;;;;;;;15.69;72.64;94607.06;4174044;28;20045;-64
2022/10/02 03:25:00;;;;;;;3.42;2.22;;;;;;;15.65;72.48;94621.66;4167529;28;20152;-64
2022/10/02 03:27:29;;;;;;;3.25;2.20;;;;;;;15.70;72.53;94624.53;4179860;28;20446;-64
2022/10/02 03:29:41;;;;;;;2.90;2.30;;;;;;;15.62;72.54;94627.34;4180453;28;20052;-65
2022/10/02 03:31:44;;;;;;;2.90;2.25;;;;;;;15.64;72.52;94620.84;4172711;28;20612;-66
2022/10/02 03:33:46;;;;;;;5.43;2.37;;;;;;;15.61;72.86;94628.31;4166733;28;20062;-64
2022/10/02 03:35:49;;;;;;;3.70;2.33;;;;;;;15.66;72.72;94625.91;4172953;28;20566;-64
2022/10/02 03:37:56;;;;;;;3.05;2.60;;;;;;;15.73;72.70;94624.19;4179300;28;20052;-63
2022/10/02 03:40:00;;;;;;;5.97;2.65;;;;;;;15.75;72.63;94619.53;4171787;28;20057;-63
2022/10/02 03:42:01;;;;;;;5.45;2.85;;;;;;;15.66;72.67;94631.19;4167058;28;20144;-65
2022/10/02 03:44:03;;;;;;;2.97;2.65;;;;;;;15.69;72.89;94641.41;4178416;28;20052;-64
2022/10/02 03:46:05;;;;;;;3.00;2.58;;;;;;;15.64;72.98;94633.22;4178101;28;20121;-66
2022/10/02 03:48:07;;;;;;;3.28;2.53;;;;;;;15.60;73.09;94635.44;4170694;28;20052;-64
2022/10/02 03:50:13;;;;;;;6.55;2.90;;;;;;;15.60;73.10;94632.81;4169920;28;20120;-66
2022/10/02 03:52:17;;;;;;;5.30;2.85;;;;;;;15.57;73.26;94635.81;4180794;28;20072;-65
2022/10/02 03:54:20;;;;;;;5.22;2.50;;;;;;;15.58;73.07;94642.75;4180353;28;20079;-64
2022/10/02 03:56:40;;;;;;;3.60;2.60;;;;;;;15.54;73.12;94637.00;4167444;28;20080;-62
2022/10/02 03:58:44;;;;;;;3.50;2.40;;;;;;;15.47;72.81;94628.22;4169327;28;20045;-63
2022/10/02 04:01:01;;;;;;;2.63;2.42;;;;;;;15.46;72.37;94638.97;4177670;28;20057;-64
2022/10/02 04:03:08;;;;;;;3.85;2.80;;;;;;;15.38;72.69;94652.28;4178736;28;20144;-62
2022/10/02 04:05:10;;;;;;;3.22;2.53;;;;;;;15.38;72.62;94666.34;4167597;28;20052;-62
2022/10/02 04:07:17;;;;;;;4.35;2.90;;;;;;;15.40;72.64;94666.97;4177596;28;20037;-63
2022/10/02 04:09:31;;;;;;;4.07;3.00;;;;;;;15.42;72.96;94667.56;4162733;28;20135;-63
2022/10/02 04:11:41;;;;;;;5.63;2.75;;;;;;;15.48;73.08;94661.53;4167429;28;20556;-64
2022/10/02 04:14:06;;;;;;;3.08;2.78;;;;;;;15.47;72.07;94674.94;4172726;28;20056;-65
2022/10/02 04:16:16;;;;;;;3.15;2.85;;;;;;;15.52;72.24;94668.06;4176114;28;20076;-64
2022/10/02 04:18:25;;;;;;;3.10;2.80;;;;;;;15.53;71.94;94684.72;4178223;28;20053;-65
2022/10/02 04:20:32;;;;;;;3.53;2.97;;;;;;;15.56;72.11;94695.72;4179109;28;20132;-65
2022/10/02 04:22:56;;;;;;;6.55;2.88;;;;;;;15.43;72.20;94694.81;4167848;28;20128;-65
2022/10/02 04:25:05;;;;;;;3.83;2.88;;;;;;;15.37;72.35;94696.34;4166795;28;20131;-63
2022/10/02 04:27:17;;;;;;;3.20;2.90;;;;;;;15.43;72.36;94698.25;4178702;28;20191;-64
2022/10/02 04:29:26;;;;;;;4.18;2.63;;;;;;;15.46;72.36;94697.84;4178655;28;20537;-63
2022/10/02 04:31:27;;;;;;;3.05;2.75;;;;;;;15.55;72.33;94696.75;4177045;28;20128;-63
2022/10/02 04:33:31;;;;;;;3.42;2.67;;;;;;;15.59;71.57;94697.16;4170969;28;20088;-64
2022/10/02 04:35:45;;;;;;;4.50;2.70;;;;;;;15.66;71.48;94695.41;4166500;28;20130;-64
2022/10/02 04:37:58;;;;;;;5.32;3.08;;;;;;;15.65;71.48;94704.34;4178373;28;20048;-64
2022/10/02 04:40:06;;;;;;;3.67;2.95;;;;;;;15.62;70.95;94706.56;4179227;28;20152;-63
2022/10/02 04:42:20;;;;;;;5.18;2.80;;;;;;;15.70;70.78;94711.69;4167025;28;20122;-62
2022/10/02 04:44:43;;;;;;;3.85;2.78;;;;;;;15.78;70.73;94706.28;4162851;28;20076;-64
2022/10/02 04:46:57;;;;;;;5.15;2.75;;;;;;;15.84;70.53;94715.28;4161697;28;20140;-65
2022/10/02 04:49:26;;;;;;;2.63;2.42;;;;;;;15.62;70.17;94717.94;4163677;28;20049;-64
2022/10/02 04:51:37;;;;;;;5.35;2.83;;;;;;;15.52;69.84;94728.78;4162450;28;20099;-64
2022/10/02 04:53:58;;;;;;;2.97;2.67;;;;;;;15.63;69.98;94742.50;4175677;28;20494;-66
2022/10/02 04:56:11;;;;;;;8.40;2.70;;;;;;;15.61;69.77;94749.78;4172869;28;20088;-65
2022/10/02 04:59:08;;;;;;;2.50;2.30;;;;;;;15.64;69.39;94742.31;4166155;28;20049;-64
2022/10/02 05:01:17;;;;;;;4.28;2.80;;;;;;;15.44;69.51;94736.81;4161784;28;20082;-64
2022/10/02 05:03:27;;;;;;;7.82;2.80;;;;;;;15.44;69.55;94741.28;4163869;28;20469;-64
2022/10/02 05:05:38;;;;;;;3.17;2.22;;;;;;;15.41;69.36;94741.69;4171321;28;20122;-63
2022/10/02 05:08:18;;;;;;;4.68;2.50;;;;;;;15.52;69.61;94742.00;4167403;28;20046;-65
2022/10/02 05:10:55;;;;;;;3.15;2.35;;;;;;;15.54;69.02;94741.81;4163278;28;20093;-65
2022/10/02 05:13:15;;;;;;;4.50;2.60;;;;;;;15.61;68.77;94733.94;4177536;28;20147;-65
2022/10/02 05:15:31;;;;;;;2.78;2.40;;;;;;;15.60;68.55;94759.53;4176724;28;20135;-65
2022/10/02 05:18:00;;;;;;;4.30;2.30;;;;;;;15.65;68.05;94759.78;4177140;28;20143;-64
2022/10/02 05:20:42;;;;;;;3.45;2.25;;;;;;;15.75;67.78;94754.22;4170576;28;20470;-67
2022/10/02 05:22:47;;;;;;;3.53;2.30;;;;;;;15.76;67.46;94764.59;4177094;28;20524;-66
2022/10/02 05:24:53;;;;;;;3.30;2.20;;;;;;;15.81;67.00;94753.47;4165655;28;20087;-65
2022/10/02 05:27:14;;;;;;;2.67;2.15;;;;;;;15.97;66.55;94753.19;4178971;28;20478;-66
2022/10/02 05:29:43;;;;;;;3.63;2.20;;;;;;;15.90;66.33;94754.97;4179147;28;20513;-65
2022/10/02 05:31:59;;;;;;;7.93;2.30;;;;;;;15.96;66.05;94761.34;4161350;28;20571;-66
2022/10/02 05:34:13;;;;;;;3.13;2.20;;;;;;;16.03;66.04;94748.97;4162795;28;20080;-65
2022/10/02 05:36:37;;;;;;;3.75;2.13;;;;;;;15.97;65.34;94769.03;4164201;28;20137;-64
2022/10/02 05:39:02;;;;;;;3.33;2.10;;;;;;;16.07;64.85;94736.22;4173957;28;20417;-64
2022/10/02 05:41:42;;;;;;;4.15;2.20;;;;;;;16.11;64.76;94753.28;4176818;28;20547;-64
2022/10/02 05:44:08;;;;;;;3.08;2.30;;;;;;;15.90;64.01;94744.41;4174766;28;20168;-64
2022/10/02 05:46:24;;;;;;;6.00;2.28;;;;;;;15.88;64.28;94767.56;4166575;28;20481;-66
2022/10/02 05:48:36;;;;;;;4.70;2.22;;;;;;;15.87;63.85;94768.53;4165481;28;20088;-65
2022/10/02 05:50:37;;;;;;;3.03;2.30;;;;;;;15.85;64.29;94775.88;4161136;28;20152;-68
2022/10/02 05:52:46;;;;;;;3.22;2.03;;;;;;;15.87;64.02;94776.47;4161555;28;20049;-65
2022/10/02 05:55:03;;;;;;;2.92;2.03;;;;;;;15.76;63.92;94767.22;4161559;28;20053;-66
2022/10/02 05:57:17;;;;;;;2.30;2.10;;;;;;;15.74;63.92;94784.28;4160881;28;20703;-64
2022/10/02 05:59:21;;;;;;;4.97;2.17;;;;;;;15.78;63.87;94788.19;4161165;28;20064;-64
2022/10/02 06:01:26;;;;;;;2.78;2.15;;;;;;;15.82;63.94;94786.78;4160946;28;20064;-64
2022/10/02 06:03:47;;;;;;;4.43;3.15;;;;;;;15.77;63.52;94781.28;4164992;28;20053;-64
2022/10/02 06:06:21;;;;;;;3.22;2.50;;;;;;;15.85;63.84;94790.88;4161263;28;20053;-67
2022/10/02 06:08:47;;;;;;;4.60;2.13;;;;;;;15.90;63.56;94783.22;4162272;28;20077;-65
2022/10/02 06:10:52;;;;;;;3.05;2.20;;;;;;;15.84;63.43;94800.63;4160704;28;20085;-64
2022/10/02 06:12:59;;;;;;;3.42;2.25;;;;;;;15.80;63.35;94796.72;4173731;28;20111;-65
2022/10/02 06:15:24;;;;;;;3.88;2.88;;;;;;;15.79;63.51;94797.75;4161050;28;20077;-67
2022/10/02 06:17:39;;;;;;;4.32;2.47;;;;;;;15.72;63.93;94804.78;4161431;28;20570;-66
2022/10/02 06:19:57;;;;;;;5.15;2.90;;;;;;;15.72;63.81;94802.13;4167799;28;20136;-64
2022/10/02 06:22:11;;;;;;;5.90;2.58;;;;;;;15.77;63.92;94805.03;4173333;28;20052;-64
2022/10/02 06:24:21;;;;;;;4.70;2.45;;;;;;;15.77;63.49;94820.91;4167316;28;20049;-66
2022/10/02 06:26:48;;;;;;;3.00;2.70;;;;;;;15.73;63.77;94846.03;4161873;28;20111;-66
2022/10/02 06:28:59;;;;;;;5.68;2.83;;;;;;;15.66;64.28;94835.38;4158076;28;20080;-66
2022/10/02 06:31:04;;;;;;;3.80;2.42;;;;;;;15.68;64.10;94838.66;4159356;28;20564;-64
2022/10/02 06:33:23;;;;;;;7.28;3.20;;;;;;;15.76;63.46;94840.38;4165734;28;20044;-65
2022/10/02 06:35:42;;;;;;;2.97;2.67;;;;;;;15.83;64.18;94829.88;4178298;28;20148;-66
2022/10/02 06:37:52;;;;;;;4.40;2.97;;;;;;;15.95;63.51;94836.28;4164098;28;20132;-66
2022/10/02 06:40:17;;;;;;;5.22;3.05;;;;;;;16.00;63.21;94841.81;4176945;28;20087;-65
2022/10/02 06:42:43;;;;;;;4.22;3.40;;;;;;;16.21;62.89;94835.72;4176802;28;20511;-65
2022/10/02 06:45:08;;;;;;;5.05;3.70;;;;;;;16.10;61.81;94852.09;4178448;28;20053;-64
2022/10/02 06:48:05;;;;;;;3.53;3.22;;;;;;;16.10;61.69;94852.91;4173476;28;20095;-65
2022/10/02 06:50:26;;;;;;;3.60;3.05;;;;;;;16.16;61.07;94853.97;4152703;28;20194;-59
2022/10/02 06:52:28;;;;;;;4.85;3.03;;;;;;;16.14;61.63;94832.22;4161123;28;20486;-58
2022/10/02 06:54:42;;;;;;;3.50;3.20;;;;;;;16.32;61.36;94845.75;4162071;28;20060;-60
2022/10/02 06:57:13;;;;;;;3.08;2.65;;;;;;;16.27;60.90;94850.81;4175860;28;20049;-60
2022/10/02 06:59:30;;;;;;;3.13;2.83;;;;;;;16.23;61.19;94854.84;4175887;28;20128;-61
2022/10/02 07:01:34;;;;;;;3.53;2.85;;;;;;;16.23;60.82;94854.84;4172840;28;20089;-64
2022/10/02 07:03:56;;;;;;;3.75;2.88;;;;;;;16.12;61.64;94874.69;4178219;28;20367;-60
2022/10/02 07:06:01;;;;;;;4.28;3.10;;;;;;;16.15;61.77;94871.66;4177127;28;20057;-60
2022/10/02 07:08:10;;;;;;;6.90;3.00;;;;;;;16.16;61.51;94923.50;4174037;28;20045;-60
2022/10/02 07:10:34;;;;;;;3.45;3.15;;;;;;;16.23;61.20;94918.28;4175164;28;20088;-65
2022/10/02 07:12:45;;;;;;;3.42;2.53;;;;;;;16.33;60.59;94879.13;4175439;28;20049;-65
2022/10/02 07:15:06;;;;;;;3.90;2.70;;;;;;;16.42;60.44;94886.94;4165020;28;20409;-68
2022/10/02 07:17:26;;;;;;;2.92;2.35;;;;;;;16.42;58.92;94889.59;4175491;28;20049;-59
2022/10/02 07:19:41;;;;;;;4.40;2.40;;;;;;;16.42;58.86;94887.75;4164563;28;20041;-60
2022/10/02 07:22:07;;;;;;;2.47;2.28;;;;;;;16.44;59.20;94906.91;4175473;28;20541;-59
2022/10/02 07:24:56;;;;;;;2.42;2.10;;;;;;;16.54;58.75;94901.28;4164895;28;20053;-60
2022/10/02 07:27:17;;;;;;;5.75;3.55;;;;;;;16.58;59.13;94898.06;4167603;28;20045;-58
2022/10/02 07:30:05;;;;;;;4.40;2.42;;;;;;;16.80;58.25;94906.00;4176144;28;20045;-60
2022/10/02 07:32:48;;;;;;;3.70;2.60;;;;;;;16.86;57.30;94888.53;4158482;28;20083;-63
2022/10/02 07:35:02;;;;;;;2.42;2.10;;;;;;;17.04;57.46;94888.84;4166370;28;20284;-58
2022/10/02 07:37:22;;;;;;;7.18;2.03;;;;;;;17.10;56.57;94901.31;4174474;28;20139;-61
2022/10/02 07:40:00;;;;;;;5.72;2.30;;;;;;;17.15;56.73;94890.16;4169565;28;20040;-61
2022/10/02 07:42:14;;;;;;;3.03;2.15;;;;;;;17.25;56.22;94887.13;4179501;28;20580;-59
2022/10/02 07:44:24;;;;;;;3.42;1.85;;;;;;;17.21;55.63;94894.66;4174320;28;20132;-59
2022/10/02 07:46:54;;;;;;;5.75;2.15;;;;;;;17.16;54.81;94916.44;4170831;28;20401;-57
2022/10/02 07:49:12;;;;;;;3.00;2.00;;;;;;;17.22;53.72;94903.41;4163016;28;20259;-60
2022/10/02 07:53:49;;;;;;;3.67;1.95;;;;;;;17.07;53.97;94909.63;4163159;28;20087;-60
2022/10/02 07:55:52;;;;;;;2.47;1.70;;;;;;;17.11;53.06;94916.19;4162773;28;20672;-60
2022/10/02 07:58:09;;;;;;;2.40;1.42;;;;;;;17.04;52.85;94917.97;4164203;28;20045;-59
2022/10/02 08:00:15;;;;;;;4.22;1.50;;;;;;;17.07;52.58;94920.22;4162263;28;20084;-61
2022/10/02 08:02:47;;;;;;;2.08;1.33;;;;;;;17.11;52.77;94934.69;4166194;28;20053;-59
2022/10/02 08:04:56;;;;;;;6.45;1.65;;;;;;;17.21;52.75;94913.19;4176163;28;20055;-60
2022/10/02 08:07:01;;;;;;;2.40;1.80;;;;;;;17.31;53.06;94916.28;4163514;28;20103;-61
2022/10/02 08:09:05;;;;;;;3.20;1.63;;;;;;;17.35;52.74;94925.47;4163899;28;20140;-59
2022/10/02 08:11:11;;;;;;;2.85;1.70;;;;;;;17.14;53.25;94923.75;4165178;28;20049;-59
2022/10/02 08:13:19;;;;;;;2.53;1.77;;;;;;;17.16;53.52;94948.19;4180179;28;20040;-62
2022/10/02 08:15:23;;;;;;;3.08;1.88;;;;;;;17.27;53.44;94948.66;4177634;28;20583;-61
2022/10/02 08:17:27;;;;;;;2.70;1.90;;;;;;;17.31;53.50;94949.91;4180355;28;20049;-60
2022/10/02 08:19:35;;;;;;;2.45;1.85;;;;;;;17.31;53.23;94945.41;4164087;28;20041;-61
2022/10/02 08:21:41;;;;;;;3.00;2.03;;;;;;;17.19;53.14;94941.69;4166096;28;20048;-57
2022/10/02 08:24:03;;;;;;;5.20;2.33;;;;;;;16.97;54.34;94943.56;4178476;28;20184;-59
2022/10/02 08:26:30;;;;;;;3.28;1.90;;;;;;;17.24;53.79;94936.63;4178315;28;20143;-62
2022/10/02 08:28:48;;;;;;;2.60;1.67;;;;;;;17.43;53.04;94927.16;4168908;28;20103;-59
2022/10/02 08:30:50;;;;;;;1.45;1.27;;;;;;;17.43;52.00;94935.09;4162256;28;20140;-60
2022/10/02 08:32:53;;;;;;;2.45;1.42;;;;;;;17.53;52.14;94921.50;4178738;28;20084;-60
2022/10/02 08:34:54;;;;;;;2.88;1.42;;;;;;;17.60;51.06;94911.75;4179782;28;20128;-60
2022/10/02 08:37:24;;;;;;;2.13;1.48;;;;;;;17.56;51.38;94911.31;4172571;28;20450;-62
2022/10/02 08:39:38;;;;;;;2.17;1.63;;;;;;;17.64;51.00;94910.34;4169310;28;20053;-60
2022/10/02 08:41:42;;;;;;;;;;;;;;;17.78;51.18;94911.22;4163176;28;20147;-59
2022/10/02 08:44:20;;;;;;;2.38;1.50;;;;;;;17.90;51.09;94911.50;4163371;28;20301;-61
2022/10/02 08:46:46;;;;;;;5.43;1.65;;;;;;;17.26;50.00;94912.59;4167823;28;20140;-60
2022/10/02 08:49:05;;;;;;;4.10;1.90;;;;;;;17.10;52.73;94922.50;4163678;28;20107;-59
2022/10/02 08:51:13;;;;;;;3.17;1.90;;;;;;;17.36;52.51;94905.13;4161331;28;20053;-61
2022/10/02 08:53:26;;;;;;;6.57;1.98;;;;;;;17.38;52.04;94913.69;4176359;28;20055;-61
2022/10/02 08:55:42;;;;;;;5.22;1.70;;;;;;;17.50;51.54;94911.31;4179591;28;20049;-60
2022/10/02 08:58:20;;;;;;;4.43;1.90;;;;;;;17.76;51.13;94897.34;4178646;28;20145;-62
2022/10/02 09:00:25;;;;;;;1.98;1.40;;;;;;;17.84;50.51;94907.00;4166015;28;20063;-61
2022/10/02 09:02:50;;;;;;;2.58;1.70;;;;;;;17.92;50.17;94907.63;4174486;28;20099;-60
2022/10/02 09:05:18;;;;;;;2.40;1.80;;;;;;;17.68;50.99;94918.72;4178135;28;20143;-62
2022/10/02 09:07:43;;;;;;;3.65;1.50;;;;;;;17.56;51.04;94921.91;4168763;28;20497;-61
2022/10/02 09:10:02;;;;;;;;;;;;;;;17.37;51.26;94917.34;4165408;28;20080;-59
2022/10/02 09:12:41;;;;;;;4.65;1.73;;;;;;;17.29;51.63;94912.19;4169781;28;19985;-61
2022/10/02 09:14:50;;;;;;;2.63;1.70;;;;;;;17.47;51.73;94901.09;4167155;28;20444;-60
2022/10/02 09:17:33;;;;;;;3.15;1.48;;;;;;;17.63;50.25;94918.50;4177524;28;20080;-60
2022/10/02 09:19:44;;;;;;;2.05;1.50;;;;;;;17.55;50.62;94915.00;4167353;28;20048;-60
2022/10/02 09:21:55;;;;;;;2.30;1.80;;;;;;;17.71;50.16;94910.38;4178674;28;20041;-61
2022/10/02 09:24:21;;;;;;;3.53;1.70;;;;;;;17.79;49.98;94911.03;4171814;28;20107;-60
2022/10/02 09:26:39;;;;;;;2.72;1.83;;;;;;;17.94;49.94;94915.38;4177816;28;20080;-58
2022/10/02 09:29:05;;;;;;;2.33;1.73;;;;;;;18.04;49.81;94905.19;4174933;28;20128;-61
2022/10/02 09:31:33;;;;;;;3.33;1.80;;;;;;;18.03;50.30;94900.94;4163251;28;20207;-62
2022/10/02 09:33:50;;;;;;;2.78;2.08;;;;;;;18.11;49.47;94902.56;4171453;28;20060;-60
2022/10/02 09:35:52;;;;;;;4.22;1.90;;;;;;;18.17;48.96;94907.06;4165219;28;20056;-60
2022/10/02 09:38:41;;;;;;;3.05;1.60;;;;;;;18.23;48.82;94916.06;4163071;28;20265;-60
2022/10/02 09:41:23;;;;;;;2.72;1.83;;;;;;;18.21;48.53;94903.81;4167194;28;20172;-61
2022/10/02 09:43:30;;;;;;;2.70;1.40;;;;;;;18.20;47.80;94907.50;4171511;28;20413;-60
2022/10/02 09:46:10;;;;;;;5.75;2.03;;;;;;;18.18;48.83;94906.06;4176711;28;20049;-61
2022/10/02 09:48:32;;;;;;;5.00;1.88;;;;;;;18.12;48.90;94904.22;4164823;28;20041;-61
2022/10/02 09:50:58;;;;;;;2.20;1.70;;;;;;;18.15;49.09;94898.50;4164845;28;20611;-63
2022/10/02 09:53:19;;;;;;;4.57;1.83;;;;;;;18.30;48.81;94917.69;4169534;28;20052;-59
2022/10/02 09:55:41;;;;;;;2.28;1.50;;;;;;;18.39;47.81;94905.06;4173037;28;20053;-60
2022/10/02 09:58:28;;;;;;;6.53;2.00;;;;;;;18.57;47.06;94912.44;4164735;28;20159;-61
2022/10/02 10:00:30;;;;;;;3.13;2.10;;;;;;;18.66;47.83;94916.50;4163057;28;20046;-61
2022/10/02 10:02:43;;;;;;;4.60;1.77;;;;;;;18.69;46.89;94894.91;4164652;28;20525;-61
2022/10/02 10:05:10;;;;;;;4.75;2.45;;;;;;;18.86;47.67;94892.66;4166014;28;20054;-64
2022/10/02 10:07:34;;;;;;;2.33;1.73;;;;;;;19.17;46.88;94896.50;4169811;28;20088;-60
2022/10/02 10:09:57;;;;;;;2.08;1.70;;;;;;;19.29;47.01;94910.75;4166384;28;20049;-61
2022/10/02 10:12:34;;;;;;;5.32;1.65;;;;;;;19.00;46.52;94925.31;4170882;28;20107;-60
2022/10/02 10:14:50;;;;;;;3.35;1.92;;;;;;;18.85;47.12;94899.00;4171223;28;20053;-60
2022/10/02 10:17:07;;;;;;;4.97;1.90;;;;;;;18.65;47.32;94891.03;4163484;28;20199;-61
2022/10/02 10:19:31;;;;;;;2.17;1.63;;;;;;;18.80;47.58;94902.28;4176405;28;20547;-62
2022/10/02 10:21:45;;;;;;;2.42;1.70;;;;;;;18.73;47.67;94900.59;4169938;28;20081;-61
2022/10/02 10:24:05;;;;;;;2.90;1.25;;;;;;;18.57;47.27;94921.22;4178666;28;20478;-61
2022/10/02 10:26:54;;;;;;;3.25;1.42;;;;;;;18.36;47.03;94890.38;4177650;28;20135;-61
2022/10/02 10:29:14;;;;;;;3.50;1.20;;;;;;;18.50;46.58;94898.34;4159288;28;20637;-59
2022/10/02 10:31:34;;;;;;;2.13;1.65;;;;;;;18.24;46.75;94907.91;4173163;28;20553;-62
2022/10/02 10:33:52;;;;;;;2.60;1.30;;;;;;;18.21;46.89;94913.59;4169885;28;20045;-60
2022/10/02 10:39:28;;;;;;;2.10;1.40;;;;;;;18.52;46.49;94894.47;4176429;28;20049;-61
2022/10/02 10:41:35;;;;;;;2.58;1.20;;;;;;;18.51;46.52;94886.72;4171156;28;20187;-60
2022/10/02 10:44:05;;;;;;;3.67;1.70;;;;;;;18.44;47.34;94867.34;4172684;28;20052;-61